Flight Track Log - Related Links

Times and Time Zones

All times are in EDT time to prevent confusion due to time zone crossing. See the FLG3456 flight status page for this flight to view local times or setup timezone preferences in your user account.

Time Position Orientation Groundspeed Altitude Reporting Facility
EDT Latitude Longitude Course Direction KTS MPH feet Rate Location/Type
Fri 05:26:13 PM 42.7275 -73.8039 276° West 147 169 1,200  Level Boston Center
Fri 05:27:19 PM 42.7319 -73.8608 276° West 242 278 3,400 2,336 Climbing Boston Center
Fri 05:28:24 PM 42.8006 -73.9039 335° Northwest 246 283 6,300 2,512 Climbing Boston Center
Fri 05:29:28 PM 42.8675 -73.9500 333° Northwest 266 306 8,800 2,371 Climbing Boston Center
Fri 05:30:28 PM 42.9453 -74.0008 334° Northwest 285 328 11,200 2,430 Climbing Boston Center
Fri 05:31:29 PM 43.0242 -74.0494 336° Northwest 307 353 13,700 2,311 Climbing Boston Center
Fri 05:32:30 PM 43.1053 -74.1003 335° Northwest 315 362 15,900 2,016 Climbing Boston Center
Fri 05:33:34 PM 43.1936 -74.1636 332° Northwest 329 379 17,900 1,152 Climbing Boston Center
Fri 05:34:35 PM 43.2031 -74.2953 276° West 354 407 18,300 689 Climbing Boston Center
Fri 05:35:36 PM 43.2008 -74.4375 269° West 389 448 19,300 1,230 Climbing Boston Center
Fri 05:36:37 PM 43.1983 -74.5908 269° West 399 459 20,800 1,475 Climbing Boston Center
Fri 05:37:38 PM 43.1953 -74.7456 269° West 402 463 22,300 1,500 Climbing Boston Center
Fri 05:38:41 PM 43.1922 -74.9011 269° West 408 470 23,900 1,500 Climbing Boston Center
Fri 05:39:42 PM 43.1892 -75.0556 268° West 406 467 25,400 1,475 Climbing Boston Center
Fri 05:40:43 PM 43.1853 -75.2089 268° West 401 461 26,900 1,258 Climbing Boston Center
Fri 05:41:46 PM 43.1819 -75.3633 268° West 400 460 28,000 1,024 Climbing Boston Center
Fri 05:42:46 PM 43.1794 -75.5181 269° West 400 460 29,000 1,082 Climbing Boston Center
Fri 05:43:48 PM 43.1750 -75.7047 268° West 403 464 30,200 1,073 Climbing Boston Center
Fri 05:44:49 PM 43.1706 -75.8600 268° West 407 468 31,200 1,180 Climbing Boston Center
Fri 05:45:50 PM 43.1664 -76.0147 268° West 407 468 32,600 1,306 Climbing Boston Center
Fri 05:46:53 PM 43.1631 -76.1642 268° West 398 458 33,900 927 Climbing Boston Center
Fri 05:47:53 PM 43.1539 -76.3106 265° West 391 450 34,500 532 Climbing Boston Center
Fri 05:48:57 PM 43.1411 -76.4597 263° West 392 451 35,000 484 Climbing Boston Center
Fri 05:49:57 PM 43.1278 -76.6108 263° West 397 457 35,500 496 Climbing Boston Center
Fri 05:50:58 PM 43.1122 -76.7814 263° West 399 459 36,000 246 Climbing Boston Center
Fri 05:51:59 PM 43.0989 -76.9236 263° West 382 440 36,000  Level Boston Center
Fri 05:53:03 PM 43.0875 -77.0617 264° West 372 428 36,000  Level Boston Center
Fri 05:54:04 PM 43.0736 -77.2031 262° West 372 428 36,000  Level Boston Center
Fri 05:55:04 PM 43.0608 -77.3461 263° West 380 437 36,000  Level Boston Center
Fri 05:56:07 PM 43.0472 -77.4906 263° West 382 440 36,000  Level Boston Center
Fri 05:57:17 PM 43.0275 -77.6911 262° West 385 443 36,000  Level Cleveland Center
Fri 05:58:19 PM 43.0139 -77.8319 263° West 381 438 36,000  Level Cleveland Center
Fri 05:59:22 PM 42.9994 -77.9711 262° West 378 435 36,000  Level Cleveland Center
Fri 06:00:24 PM 42.9858 -78.1108 262° West 378 435 36,000  Level Cleveland Center
Fri 06:01:26 PM 42.9711 -78.2536 262° West 382 440 36,000  Level Cleveland Center
Fri 06:02:28 PM 42.9525 -78.4242 262° West 382 440 36,000  Level Cleveland Center
Fri 06:03:30 PM 42.9381 -78.5647 262° West 380 437 36,000  Level Cleveland Center
Fri 06:04:32 PM 42.9225 -78.7047 261° West 377 434 36,000 -194 Level Cleveland Center
Fri 06:05:34 PM 42.9022 -78.8431 259° West 376 433 35,600 -677 Descending Cleveland Center
Fri 06:06:36 PM 42.8817 -78.9800 258° West 372 428 34,600 -1,065 Descending Cleveland Center
Fri 06:07:38 PM 42.8622 -79.1172 259° West 371 427 33,400 -2,177 Descending Cleveland Center
Fri 06:08:40 PM 42.8356 -79.2867 258° West 381 438 30,100 -1,645 Descending Cleveland Center
Fri 06:09:42 PM 42.8150 -79.4250 259° West 378 435 30,000 -48 Descending Cleveland Center
Fri 06:10:45 PM 42.7944 -79.5617 258° West 373 429 30,000 -528 Level Cleveland Center
Fri 06:11:47 PM 42.7731 -79.6989 258° West 372 428 28,900 -968 Descending Cleveland Center
Fri 06:12:49 PM 42.7522 -79.8383 259° West 378 435 28,000 -435 Descending Cleveland Center
Fri 06:13:51 PM 42.7439 -80.0219 267° West 408 470 28,000  Level Cleveland Center
Fri 06:14:53 PM 42.7375 -80.1739 267° West 403 464 28,000  Level Cleveland Center
Fri 06:15:55 PM 42.7308 -80.3247 267° West 398 458 28,000  Level Cleveland Center
Fri 06:16:57 PM 42.7244 -80.4778 267° West 400 460 28,000  Level Cleveland Center
Fri 06:17:59 PM 42.7178 -80.6283 267° West 399 459 28,000 -484 Level Cleveland Center
Fri 06:19:01 PM 42.7119 -80.7808 267° West 399 459 27,000 -1,200 Descending Cleveland Center
Fri 06:20:04 PM 42.7039 -80.9297 266° West 397 457 25,500 -1,440 Descending Cleveland Center
Fri 06:21:06 PM 42.6839 -81.0900 260° West 371 427 24,000 -726 Descending Cleveland Center
Fri 06:22:08 PM 42.6692 -81.2211 261° West 352 405 24,000  Level Cleveland Center
Fri 06:23:10 PM 42.6531 -81.3600 261° West 365 420 24,000  Level Cleveland Center
Fri 06:24:12 PM 42.6372 -81.4961 261° West 366 421 24,000 -387 Level Cleveland Center
Fri 06:25:14 PM 42.6211 -81.6322 261° West 366 421 23,200 -1,403 Descending Cleveland Center
Fri 06:26:16 PM 42.6039 -81.7689 260° West 365 420 21,100 -2,177 Descending Cleveland Center
Fri 06:27:18 PM 42.5861 -81.9244 261° West 356 410 18,700 -2,177 Descending Cleveland Center
Fri 06:28:20 PM 42.5708 -82.0475 260° West 336 387 16,600 -2,032 Descending Cleveland Center
Fri 06:29:22 PM 42.5561 -82.1650 260° West 324 373 14,500 -1,968 Descending Cleveland Center
Fri 06:30:25 PM 42.5419 -82.2792 260° West 314 361 12,500 -1,515 Descending Cleveland Center
Fri 06:31:01 PM 42.5314 -82.3572 260° West 286 329 12,000 -484 Descending Cleveland Center
Fri 06:31:27 PM 42.5292 -82.3839 264° West 293 337 12,000  Level Cleveland Center
Fri 06:31:44 PM 42.5228 -82.4239 258° West 258 297 12,000  Level Cleveland Center
Fri 06:32:29 PM 42.5169 -82.4806 262° West 269 310 12,000  Level Cleveland Center
Fri 06:32:51 PM 42.5086 -82.5353 258° West 273 314 12,000  Level Cleveland Center
Fri 06:33:31 PM 42.4906 -82.5967 248° West 269 310 12,000 -218 Level Cleveland Center
Fri 06:33:46 PM 42.4817 -82.6194 242° Southwest 263 303 11,800 -968 Descending Cleveland Center
Fri 06:34:33 PM 42.4597 -82.6817 244° Southwest 256 295 11,000 -985 Descending Cleveland Center
Fri 06:34:53 PM 42.4475 -82.7169 245° Southwest 253 291 10,700 -968 Descending Cleveland Center
Fri 06:35:35 PM 42.4292 -82.7708 245° Southwest 255 293 10,000 -1,279 Descending Cleveland Center
Fri 06:35:54 PM 42.4161 -82.8061 243° Southwest 261 300 9,400 -2,323 Descending Cleveland Center
Fri 06:36:37 PM 42.3969 -82.8575 243° Southwest 258 297 7,600 -2,361 Descending Cleveland Center
Fri 06:36:55 PM 42.3844 -82.8950 246° West 259 298 7,000 -581 Descending Cleveland Center
Fri 06:37:39 PM 42.3822 -82.9400 266° West 236 272 7,000  Level Cleveland Center
Fri 06:37:56 PM 42.3850 -82.9714 277° West 198 228 7,000  Level Cleveland Center
Fri 06:38:41 PM 42.4142 -82.9919 333° Northwest 222 255 7,000  Level Cleveland Center
Fri 06:38:58 PM 42.4428 -82.9819 14° North 232 267 7,000 -95 Level Cleveland Center
Fri 06:39:44 PM 42.4861 -82.9811 North 226 260 6,900  Descending Cleveland Center
Fri 06:39:59 PM 42.4989 -82.9897 334° Northwest 175 201 7,000 -581 Climbing Cleveland Center
Fri 06:40:46 PM 42.5122 -83.0267 296° West 167 192 6,300 -984 Descending Cleveland Center
Fri 06:41:00 PM 42.5114 -83.0450 266° West 149 171 6,000 -290 Descending Cleveland Center
Fri 06:41:48 PM 42.5006 -83.0789 247° West 154 177 6,000  Level Cleveland Center
Fri 06:42:01 PM 42.4908 -83.0961 233° Southwest 160 184 6,000  Level Cleveland Center
Fri 06:42:50 PM 42.4739 -83.1283 235° Southwest 161 185 6,000  Level Cleveland Center
Fri 06:43:08 PM 42.4614 -83.1542 237° Southwest 167 192 6,000 -290 Level Cleveland Center
Fri 06:43:52 PM 42.4403 -83.1694 208° Southwest 173 199 5,700 -871 Descending Cleveland Center
Fri 06:44:10 PM 42.4189 -83.1881 213° Southwest 165 190 5,100 -1,355 Descending Cleveland Center
Fri 06:44:54 PM 42.3917 -83.2075 208° Southwest 169 194 4,300 -984 Descending Cleveland Center
Fri 06:45:11 PM 42.3792 -83.2164 208° Southwest 160 184 4,100 -774 Descending Cleveland Center
Fri 06:45:56 PM 42.3517 -83.2364 208° Southwest 164 189 3,500 -885 Descending Cleveland Center
Fri 06:46:12 PM 42.3369 -83.2472 209° Southwest 163 188 3,200 -968 Descending Cleveland Center
Fri 06:46:58 PM 42.3106 -83.2656 207° Southwest 164 189 2,500 -885 Descending Cleveland Center
Fri 06:47:13 PM 42.2969 -83.2756 209° Southwest 149 171 2,300 -581 Descending Cleveland Center
Fri 06:48:00 PM 42.2769 -83.2917 211° Southwest 151 174 1,900 -677 Descending Cleveland Center
Fri 06:48:15 PM 42.2656 -83.3022 214° Southwest 140 161 1,600 -677 Descending Cleveland Center
Fri 06:49:02 PM 42.2436 -83.3175 207° Southwest 142 163 1,200 -590 Descending Cleveland Center
Fri 06:49:16 PM 42.2303 -83.3253 203° Southwest 138 159 1,000 -290 Descending Cleveland Center
Fri 06:50:04 PM 42.2117 -83.3403 211° Southwest 142 163 900 -125 Descending Cleveland Center

Login

Don't have an account? Register now (free) for customized features, flight alerts, and more!